Hurst, Texas
Current Conditions -  °F | °C
As of 10:53 AM on Saturday 22 Nov 2014 (Local Time) from KDFW Reporting Station
Drizzle Drizzle  
Wind Chill: 57°   Ceiling: 400
Heat Index: 57°   Visibility: 1.5mi
Dew Point: 57°   Wind: 14mph
Humidity: 100%   Direction: 150°SSE
Pressure: 30"   Gusts: NA
Location:  32.84°N, 97.19°W
Report Text: KDFW 221653Z 15012KT 1 1/2SM -DZ BR OVC004 14/14 A3000 RMK AO2 SFC VIS 2 1/2 SLP155 P0000 T01390139
Loading
Personal Weather Stations






























Interactive Weather Map New forecast layout! Learn more

10-Day Weather Forecast

Advertisements
Track Severe Weather on mobile